Aérodrome :
LOGIN :

S'inscrire | Disclaimer

   EN    FR    IT 

 










Légende :    VFR   VFR Marginal   IFR   IFR Intensif   IFR Très Intensif
Visi : 
Plafond : 
>= 8 km
>= 3000ft
5 à 8 km
1000 à 3000 ft
1500m à 5 km
500 à 1000 ft
800 à 1500m
200 à 500 ft
< 800m
< 200 ft
Symboles :   Orages  Brouillard  Fortes neiges  Fortes précipitations  Vent > 20 kt
SIGMETs :   Divers  Orages  Givrage  Turbulence  Onde Orograph.  Cendres Volcan.







- Altitude de l'aérodrome : 38 ft
- Code IATA : BOH
- Voir les cartes d'approche


EGHH - Bournemouth

DERNIER METAR :
  • 201420Z 21017G30KT 180V290 9999 SCT015 BKN022 19/16 Q1009

METARs EXPIRÉS :
  • 201350Z 21019G32KT 180V290 9999 BKN016 20/16 Q1010
  • 201320Z 21017KT 160V300 9999 FEW012 BKN014 BKN022 19/16 Q1010
  • 201250Z 21018G28KT 170V290 9999 FEW012 SCT014 BKN022 19/16 Q1010
  • 201220Z 21016G26KT 190V290 9999 BKN013 BKN025 19/16 Q1011
  • 201150Z 21016G26KT 190V290 9999 BKN013 BKN025 18/16 Q1011

TAF TAF EGHH
Valide du 20 à 15h jusqu'au 21 à 00h UTC


201400Z 2015/2024 21018G32KT 9999 SCT012 BKN018
PROB30
TEMPO 2015/2019 9000 BKN012
TEMPO 2019/2024 6000 RA BKN009
ATIS : +44 1202 364 151
Météo : +44 1202 364 158 (TAF)
Pas de NOTAMs connus pour ce terrain.
2 SIGMETs publiés pour la FIR London (EGTT) :
 
Onde orographique forte
EGTT SIGMET 07 VALID 201300/201700 EGRR
EGTT LONDON FIR SEV MTW FCST WI N5008 W00516 - N5231 W00338 - N5310 W00040 - N5117 W00127 - N5008 W00516 FL040/240 STNR INTSF=
Turbulence forte
EGTT SIGMET 06 VALID 201300/201700 EGRR
EGTT LONDON FIR SEV TURB FCST S OF N5023 AND W OF W00655 SFC/FL060 MOV NE 25KT INTSF=



MET'MAP, la Météo Aéronautique d'un coup d'oeil ! - Copyright ORBIFLY Décembre 2007 - Disclaimer

ORBIFLY MET'MAP TEAM :

Programmation & Développement : Alexandra Zaïnal
Conception & Développement : Baudouin d'Aumeries
Co-Programmation & Développement : Marc-Olivier Méhu
Soutien technique & logistique : Manuel Goepfert

Contact : metmap@orbifly.com




SOURCES & CREDITS :

   NOAA